Time;durP1;ratioP1;P1;durP2;ratioP2;P2;SDS_P1;SDS_P2;PMS_P1;PMS_P2;Temp;Humidity;BMP_temperature;BMP_pressure;BME280_temperature;BME280_humidity;BME280_pressure;Samples;Min_cycle;Max_cycle;Signal;HPM_P1;HPM_P2
2021/10/10 00:01:16;;;;;;;4.53;2.53;;;;;;;;;;5034653;28;20061;-47
2021/10/10 00:03:42;;;;;;;2.90;2.25;;;;;;;;;;5034523;28;20479;-47
2021/10/10 00:06:07;;;;;;;3.63;2.50;;;;;;;;;;5034128;28;20404;-47
2021/10/10 00:08:33;;;;;;;5.93;2.70;;;;;;;;;;5034537;28;20018;-47
2021/10/10 00:10:58;;;;;;;3.60;2.03;;;;;;;;;;5034410;28;20034;-46
2021/10/10 00:13:24;;;;;;;5.03;2.42;;;;;;;;;;5034314;28;20368;-46
2021/10/10 00:15:49;;;;;;;3.70;1.92;;;;;;;;;;5034019;28;20029;-47
2021/10/10 00:18:15;;;;;;;7.15;2.40;;;;;;;;;;5034111;28;20033;-47
2021/10/10 00:20:41;;;;;;;6.13;3.03;;;;;;;;;;5034002;28;20483;-47
2021/10/10 00:23:06;;;;;;;4.60;2.20;;;;;;;;;;5033815;28;20057;-46
2021/10/10 00:25:31;;;;;;;4.95;2.88;;;;;;;;;;5034123;28;20037;-46
2021/10/10 00:27:57;;;;;;;4.22;1.23;;;;;;;;;;5033710;28;20041;-47
2021/10/10 00:30:23;;;;;;;7.22;2.67;;;;;;;;;;5033795;28;20033;-46
2021/10/10 00:32:48;;;;;;;5.00;2.28;;;;;;;;;;5033839;28;20038;-47
2021/10/10 00:35:14;;;;;;;5.47;1.63;;;;;;;;;;5032243;28;20488;-46
2021/10/10 00:37:40;;;;;;;6.75;2.42;;;;;;;;;;5033733;28;20060;-46
2021/10/10 00:40:06;;;;;;;3.60;2.42;;;;;;;;;;5033622;28;20095;-47
2021/10/10 00:42:31;;;;;;;5.50;2.50;;;;;;;;;;5033531;28;20064;-47
2021/10/10 00:44:57;;;;;;;7.60;3.13;;;;;;;;;;5033450;28;20025;-47
2021/10/10 00:47:22;;;;;;;5.38;3.00;;;;;;;;;;5032178;28;20138;-47
2021/10/10 00:49:48;;;;;;;3.85;2.47;;;;;;;;;;5033504;28;20029;-47
2021/10/10 00:52:16;;;;;;;3.35;1.98;;;;;;;;;;5033428;28;20496;-46
2021/10/10 00:54:43;;;;;;;3.58;2.03;;;;;;;;;;5033619;28;20472;-46
2021/10/10 00:57:09;;;;;;;9.18;2.17;;;;;;;;;;5033456;28;20557;-47
2021/10/10 00:59:37;;;;;;;4.57;2.60;;;;;;;;;;5033236;28;20041;-47
2021/10/10 01:02:02;;;;;;;2.55;2.00;;;;;;;;;;5033193;28;20025;-47
2021/10/10 01:04:28;;;;;;;4.22;2.30;;;;;;;;;;5033231;28;20032;-46
2021/10/10 01:06:53;;;;;;;7.28;2.65;;;;;;;;;;5032569;28;20025;-47
2021/10/10 01:09:19;;;;;;;6.13;2.15;;;;;;;;;;5033410;28;20067;-47
2021/10/10 01:11:44;;;;;;;5.10;2.60;;;;;;;;;;5031742;28;20025;-46
2021/10/10 01:14:10;;;;;;;6.25;3.28;;;;;;;;;;5033130;28;20037;-47
2021/10/10 01:16:36;;;;;;;4.18;2.22;;;;;;;;;;5032971;28;20502;-47
2021/10/10 01:19:01;;;;;;;3.33;2.70;;;;;;;;;;5033036;28;20026;-47
2021/10/10 01:21:27;;;;;;;3.13;2.40;;;;;;;;;;5032975;28;20105;-47
2021/10/10 01:23:52;;;;;;;8.07;2.20;;;;;;;;;;5032987;28;20412;-47
2021/10/10 01:26:21;;;;;;;3.65;2.53;;;;;;;;;;5031439;28;20069;-51
2021/10/10 01:28:47;;;;;;;13.25;3.38;;;;;;;;;;5033104;28;20112;-47
2021/10/10 01:31:13;;;;;;;4.75;2.60;;;;;;;;;;5032528;28;20653;-47
2021/10/10 01:33:38;;;;;;;8.13;2.65;;;;;;;;;;5032417;28;20182;-46
2021/10/10 01:36:09;;;;;;;4.65;2.78;;;;;;;;;;5031366;28;20041;-46
2021/10/10 01:38:35;;;;;;;9.95;2.28;;;;;;;;;;5032627;28;20025;-46
2021/10/10 01:41:00;;;;;;;3.92;2.15;;;;;;;;;;5032712;28;20051;-46
2021/10/10 01:43:26;;;;;;;7.00;2.75;;;;;;;;;;5032367;28;20499;-46
2021/10/10 01:45:51;;;;;;;4.10;2.63;;;;;;;;;;5032464;28;20068;-47
2021/10/10 01:48:16;;;;;;;6.13;2.80;;;;;;;;;;5032430;28;20373;-47
2021/10/10 01:50:42;;;;;;;10.70;2.20;;;;;;;;;;5032501;28;20103;-46
2021/10/10 01:53:07;;;;;;;5.72;2.33;;;;;;;;;;5032162;28;20025;-46
2021/10/10 01:55:33;;;;;;;7.43;2.75;;;;;;;;;;5032417;28;20020;-46
2021/10/10 01:57:58;;;;;;;4.45;1.60;;;;;;;;;;5032350;28;20444;-47
2021/10/10 02:00:24;;;;;;;5.45;2.75;;;;;;;;;;5032082;28;20017;-46
2021/10/10 02:02:49;;;;;;;5.80;2.95;;;;;;;;;;5032042;28;20120;-47
2021/10/10 02:05:15;;;;;;;6.95;2.53;;;;;;;;;;5032254;28;20095;-47
2021/10/10 02:07:40;;;;;;;5.60;2.42;;;;;;;;;;5031930;28;20071;-46
2021/10/10 02:10:06;;;;;;;2.15;1.60;;;;;;;;;;5032021;28;20367;-47
2021/10/10 02:12:31;;;;;;;7.25;2.80;;;;;;;;;;5031993;28;20029;-47
2021/10/10 02:14:57;;;;;;;10.07;2.95;;;;;;;;;;5031765;28;20544;-47
2021/10/10 02:17:22;;;;;;;5.50;2.70;;;;;;;;;;5031888;28;20658;-47
2021/10/10 02:19:48;;;;;;;3.35;2.55;;;;;;;;;;5031039;28;20017;-46
2021/10/10 02:22:13;;;;;;;3.70;2.28;;;;;;;;;;5031866;28;20110;-47
2021/10/10 02:24:39;;;;;;;4.45;2.35;;;;;;;;;;5030481;28;20108;-47
2021/10/10 02:27:05;;;;;;;6.32;2.92;;;;;;;;;;5031694;28;20111;-46
2021/10/10 02:29:31;;;;;;;7.32;2.80;;;;;;;;;;5031902;28;20092;-46
2021/10/10 02:31:57;;;;;;;5.07;2.65;;;;;;;;;;5031865;28;20037;-46
2021/10/10 02:34:22;;;;;;;6.68;2.85;;;;;;;;;;5031522;28;20061;-46
2021/10/10 02:36:48;;;;;;;7.03;2.72;;;;;;;;;;5030256;28;20443;-47
2021/10/10 02:39:13;;;;;;;3.35;2.08;;;;;;;;;;5031473;28;20076;-48
2021/10/10 02:41:38;;;;;;;3.53;2.60;;;;;;;;;;5031526;28;20076;-47
2021/10/10 02:44:04;;;;;;;5.63;2.50;;;;;;;;;;5031663;28;20029;-47
2021/10/10 02:46:30;;;;;;;4.43;2.28;;;;;;;;;;5031336;28;20439;-47
2021/10/10 02:48:56;;;;;;;6.38;2.17;;;;;;;;;;5030086;28;20111;-46
2021/10/10 02:51:21;;;;;;;11.45;3.65;;;;;;;;;;5031398;28;20044;-47
2021/10/10 02:53:46;;;;;;;5.00;2.90;;;;;;;;;;5031410;28;20017;-46
2021/10/10 02:56:12;;;;;;;7.88;2.75;;;;;;;;;;5031441;28;20800;-47
2021/10/10 02:58:37;;;;;;;4.57;2.63;;;;;;;;;;5031278;28;20033;-47
2021/10/10 03:01:03;;;;;;;4.00;2.22;;;;;;;;;;5031325;28;20038;-46
2021/10/10 03:03:28;;;;;;;4.68;2.90;;;;;;;;;;5031382;28;20431;-47
2021/10/10 03:05:53;;;;;;;5.28;3.13;;;;;;;;;;5030969;28;20548;-47
2021/10/10 03:08:19;;;;;;;3.58;2.15;;;;;;;;;;5031296;28;20083;-47
2021/10/10 03:10:44;;;;;;;8.38;2.53;;;;;;;;;;5031394;28;20656;-47
2021/10/10 03:13:10;;;;;;;5.03;2.67;;;;;;;;;;5031133;28;20025;-47
2021/10/10 03:15:35;;;;;;;6.30;2.15;;;;;;;;;;5031433;28;20087;-46
2021/10/10 03:18:01;;;;;;;4.32;2.38;;;;;;;;;;5030997;28;20099;-47
2021/10/10 03:20:27;;;;;;;12.15;2.92;;;;;;;;;;5031153;28;20068;-47
2021/10/10 03:22:52;;;;;;;7.22;3.08;;;;;;;;;;5031388;28;20120;-47
2021/10/10 03:25:17;;;;;;;4.93;2.60;;;;;;;;;;5030958;28;20435;-47
2021/10/10 03:27:43;;;;;;;3.97;2.78;;;;;;;;;;5031072;28;20025;-47
2021/10/10 03:30:08;;;;;;;9.23;2.72;;;;;;;;;;5031753;28;20043;-46
2021/10/10 03:32:34;;;;;;;5.72;2.30;;;;;;;;;;5035224;28;20071;-47
2021/10/10 03:35:00;;;;;;;8.18;3.42;;;;;;;;;;5034650;28;20068;-47
2021/10/10 03:37:25;;;;;;;8.15;2.50;;;;;;;;;;5035067;28;20499;-47
2021/10/10 03:39:50;;;;;;;7.18;2.30;;;;;;;;;;5033492;28;20094;-47
2021/10/10 03:42:16;;;;;;;4.95;2.45;;;;;;;;;;5034720;28;20025;-46
2021/10/10 03:44:41;;;;;;;1.98;1.15;;;;;;;;;;5035008;28;20535;-47
2021/10/10 03:47:07;;;;;;;5.75;2.80;;;;;;;;;;5034694;28;20476;-47
2021/10/10 03:49:33;;;;;;;5.50;2.25;;;;;;;;;;5034587;28;20029;-47
2021/10/10 03:51:59;;;;;;;3.67;2.00;;;;;;;;;;5034838;28;20147;-47
2021/10/10 03:56:50;;;;;;;6.70;3.22;;;;;;;;;;5034749;28;20025;-47
2021/10/10 03:59:16;;;;;;;5.50;3.05;;;;;;;;;;5034672;28;20037;-47
2021/10/10 04:01:42;;;;;;;3.10;2.35;;;;;;;;;;5034287;28;20013;-47
2021/10/10 04:04:07;;;;;;;4.95;2.78;;;;;;;;;;5034400;28;20025;-47
2021/10/10 04:06:33;;;;;;;5.00;2.80;;;;;;;;;;5034169;28;20392;-47
2021/10/10 04:08:58;;;;;;;7.50;3.22;;;;;;;;;;5034403;28;20030;-47
2021/10/10 04:11:23;;;;;;;4.90;2.60;;;;;;;;;;5034550;28;20029;-47
2021/10/10 04:13:49;;;;;;;2.97;2.03;;;;;;;;;;5034406;28;20087;-47
2021/10/10 04:16:14;;;;;;;3.00;1.85;;;;;;;;;;5034019;28;20025;-46
2021/10/10 04:18:40;;;;;;;4.45;2.20;;;;;;;;;;5034100;28;20033;-47
2021/10/10 04:21:05;;;;;;;5.03;2.22;;;;;;;;;;5034237;28;20021;-47
2021/10/10 04:23:31;;;;;;;7.43;2.60;;;;;;;;;;5034180;28;20396;-47
2021/10/10 04:25:57;;;;;;;2.92;2.22;;;;;;;;;;5034099;28;20060;-47
2021/10/10 04:28:22;;;;;;;5.32;2.60;;;;;;;;;;5033982;28;20685;-47
2021/10/10 04:30:48;;;;;;;4.40;2.17;;;;;;;;;;5034119;28;20018;-46
2021/10/10 04:33:13;;;;;;;5.20;2.50;;;;;;;;;;5033555;28;20100;-46
2021/10/10 04:35:39;;;;;;;3.45;2.28;;;;;;;;;;5033828;28;20111;-47
2021/10/10 04:38:04;;;;;;;7.78;3.42;;;;;;;;;;5033551;28;20069;-47
2021/10/10 04:40:29;;;;;;;5.95;2.72;;;;;;;;;;5033902;28;20029;-47
2021/10/10 04:42:55;;;;;;;4.40;1.80;;;;;;;;;;5032791;28;20105;-47
2021/10/10 04:45:20;;;;;;;4.03;2.13;;;;;;;;;;5033515;28;20448;-47
2021/10/10 04:47:46;;;;;;;5.13;2.88;;;;;;;;;;5033622;28;20041;-47
2021/10/10 04:50:11;;;;;;;3.03;2.33;;;;;;;;;;5033494;28;20033;-47
2021/10/10 04:52:37;;;;;;;3.63;2.55;;;;;;;;;;5033712;28;20056;-47
2021/10/10 04:55:03;;;;;;;4.82;2.33;;;;;;;;;;5032418;28;20021;-47
2021/10/10 04:57:28;;;;;;;4.93;2.58;;;;;;;;;;5033416;28;20472;-47
2021/10/10 04:59:54;;;;;;;7.07;3.28;;;;;;;;;;5033314;28;20028;-46
2021/10/10 05:02:20;;;;;;;9.90;2.47;;;;;;;;;;5033472;28;20033;-47
2021/10/10 05:04:46;;;;;;;5.82;2.83;;;;;;;;;;5033096;28;20013;-46
2021/10/10 05:07:12;;;;;;;6.18;2.20;;;;;;;;;;5032945;28;20044;-47
2021/10/10 05:09:37;;;;;;;10.88;2.58;;;;;;;;;;5033224;28;20056;-47
2021/10/10 05:12:03;;;;;;;4.20;2.35;;;;;;;;;;5032872;28;20041;-47
2021/10/10 05:14:28;;;;;;;6.57;2.28;;;;;;;;;;5033102;28;20057;-47
2021/10/10 05:16:53;;;;;;;4.05;2.35;;;;;;;;;;5032946;28;20033;-47
2021/10/10 05:19:19;;;;;;;7.82;2.55;;;;;;;;;;5033201;28;20044;-46
2021/10/10 05:21:44;;;;;;;3.47;1.95;;;;;;;;;;5032986;28;20072;-46
2021/10/10 05:24:10;;;;;;;2.92;2.17;;;;;;;;;;5032820;28;20026;-47
2021/10/10 05:26:35;;;;;;;4.90;2.72;;;;;;;;;;5032743;28;20068;-47
2021/10/10 05:29:01;;;;;;;9.05;4.25;;;;;;;;;;5031511;28;20516;-47
2021/10/10 05:31:26;;;;;;;7.53;2.78;;;;;;;;;;5032729;28;20049;-47
2021/10/10 05:33:51;;;;;;;5.93;3.05;;;;;;;;;;5032620;28;20053;-47
2021/10/10 05:36:17;;;;;;;6.03;1.95;;;;;;;;;;5032761;28;20091;-47
2021/10/10 05:38:42;;;;;;;5.20;2.47;;;;;;;;;;5032884;28;20017;-47
2021/10/10 05:41:09;;;;;;;5.53;2.65;;;;;;;;;;5032485;28;20427;-47
2021/10/10 05:43:34;;;;;;;8.32;2.60;;;;;;;;;;5032734;28;20037;-46
2021/10/10 05:46:00;;;;;;;5.85;3.35;;;;;;;;;;5032310;28;20045;-47
2021/10/10 05:48:25;;;;;;;3.28;2.08;;;;;;;;;;5032330;28;20079;-46
2021/10/10 05:50:51;;;;;;;10.30;3.28;;;;;;;;;;5032347;28;20388;-46
2021/10/10 05:53:16;;;;;;;4.38;2.35;;;;;;;;;;5032085;28;20456;-47
2021/10/10 05:55:42;;;;;;;3.33;2.33;;;;;;;;;;5032171;28;20030;-47
2021/10/10 05:58:15;;;;;;;3.58;2.40;;;;;;;;;;5032223;28;20043;-47
2021/10/10 06:00:40;;;;;;;3.35;2.00;;;;;;;;;;5032394;28;20166;-47
2021/10/10 06:03:07;;;;;;;7.82;2.95;;;;;;;;;;5032300;28;20504;-46
2021/10/10 06:05:33;;;;;;;6.15;3.05;;;;;;;;;;5031985;28;20040;-46
2021/10/10 06:07:58;;;;;;;3.20;2.65;;;;;;;;;;5032280;28;20037;-47
2021/10/10 06:10:24;;;;;;;5.93;3.45;;;;;;;;;;5031975;28;20480;-46
2021/10/10 06:12:49;;;;;;;3.80;2.38;;;;;;;;;;5031943;28;20030;-47
2021/10/10 06:15:15;;;;;;;5.63;2.85;;;;;;;;;;5032126;28;20109;-46
2021/10/10 06:17:40;;;;;;;7.32;2.10;;;;;;;;;;5032118;28;20529;-46
2021/10/10 06:20:08;;;;;;;4.93;2.65;;;;;;;;;;5031770;28;20493;-46
2021/10/10 06:22:34;;;;;;;5.00;2.40;;;;;;;;;;5031760;28;20028;-48
2021/10/10 06:24:59;;;;;;;11.07;3.17;;;;;;;;;;5031686;28;20070;-47
2021/10/10 06:27:24;;;;;;;3.45;2.25;;;;;;;;;;5031673;28;20084;-46
2021/10/10 06:29:50;;;;;;;5.15;2.65;;;;;;;;;;5031683;28;20052;-46
2021/10/10 06:32:15;;;;;;;10.23;3.15;;;;;;;;;;5030288;28;20112;-46
2021/10/10 06:34:41;;;;;;;3.70;2.50;;;;;;;;;;5031430;28;20065;-46
2021/10/10 06:37:07;;;;;;;5.90;2.65;;;;;;;;;;5031468;28;20040;-47
2021/10/10 06:39:35;;;;;;;4.45;2.45;;;;;;;;;;5031731;28;20026;-46
2021/10/10 06:42:05;;;;;;;4.07;1.98;;;;;;;;;;5031655;28;20021;-47
2021/10/10 06:44:31;;;;;;;3.08;1.58;;;;;;;;;;5031318;28;20029;-47
2021/10/10 06:46:57;;;;;;;5.57;2.03;;;;;;;;;;5031390;28;20112;-47
2021/10/10 06:49:22;;;;;;;3.67;2.25;;;;;;;;;;5031108;28;20037;-47
2021/10/10 06:51:48;;;;;;;2.95;2.47;;;;;;;;;;5031238;28;20026;-48
2021/10/10 06:54:13;;;;;;;6.05;2.30;;;;;;;;;;5029875;28;20057;-48
2021/10/10 06:56:39;;;;;;;3.80;2.08;;;;;;;;;;5031235;28;20025;-47
2021/10/10 06:59:05;;;;;;;9.35;2.53;;;;;;;;;;5029991;28;20415;-47
2021/10/10 07:01:31;;;;;;;3.72;2.10;;;;;;;;;;5031268;28;20014;-46
2021/10/10 07:03:57;;;;;;;8.32;2.78;;;;;;;;;;5031508;28;20120;-47
2021/10/10 07:06:22;;;;;;;7.13;3.47;;;;;;;;;;5034027;28;20483;-47
2021/10/10 07:08:48;;;;;;;5.10;2.13;;;;;;;;;;5035325;28;20025;-46
2021/10/10 07:11:13;;;;;;;4.40;2.08;;;;;;;;;;5035256;28;20032;-47
2021/10/10 07:13:39;;;;;;;4.05;2.55;;;;;;;;;;5035275;28;20045;-47
2021/10/10 07:16:04;;;;;;;3.80;2.15;;;;;;;;;;5035083;28;20017;-47
2021/10/10 07:18:47;;;;;;;3.67;2.25;;;;;;;;;;5034254;28;20499;-47
2021/10/10 07:26:36;;;;;;;8.02;2.30;;;;;;;;;;5033707;28;20155;-48
2021/10/10 07:29:02;;;;;;;6.10;2.30;;;;;;;;;;5035157;28;20178;-47
2021/10/10 07:31:28;;;;;;;4.15;2.33;;;;;;;;;;5035131;28;20361;-47
2021/10/10 07:33:54;;;;;;;6.65;3.35;;;;;;;;;;5034671;28;20091;-47
2021/10/10 07:36:19;;;;;;;5.30;2.80;;;;;;;;;;5034717;28;20033;-47
2021/10/10 07:38:44;;;;;;;4.97;2.40;;;;;;;;;;5034932;28;20083;-47
2021/10/10 07:41:10;;;;;;;6.25;2.33;;;;;;;;;;5034509;28;20083;-47
2021/10/10 07:43:36;;;;;;;4.18;2.15;;;;;;;;;;5034641;28;20460;-47
2021/10/10 07:46:17;;;;;;;5.40;2.20;;;;;;;;;;5034551;28;20045;-47
2021/10/10 07:48:42;;;;;;;3.60;2.05;;;;;;;;;;5034858;28;20056;-47
2021/10/10 07:51:08;;;;;;;3.05;2.05;;;;;;;;;;5034832;28;20413;-47
2021/10/10 07:53:33;;;;;;;4.55;2.05;;;;;;;;;;5034492;28;20104;-47
2021/10/10 07:55:59;;;;;;;3.17;1.73;;;;;;;;;;5034377;28;20423;-47
2021/10/10 07:58:24;;;;;;;5.30;2.20;;;;;;;;;;5033285;28;20029;-47
2021/10/10 08:00:50;;;;;;;3.45;2.40;;;;;;;;;;5034434;28;20096;-46
2021/10/10 08:03:15;;;;;;;5.40;2.35;;;;;;;;;;5034345;28;20109;-47
2021/10/10 08:05:44;;;;;;;7.75;2.30;;;;;;;;;;5034187;28;20018;-47
2021/10/10 08:08:10;;;;;;;2.95;2.35;;;;;;;;;;5034313;28;20038;-47
2021/10/10 08:10:35;;;;;;;4.38;2.17;;;;;;;;;;5034244;28;20026;-46
2021/10/10 08:13:01;;;;;;;5.95;2.22;;;;;;;;;;5034328;28;20033;-46
2021/10/10 08:15:27;;;;;;;5.10;2.17;;;;;;;;;;5034184;28;20452;-46
2021/10/10 08:17:52;;;;;;;8.45;2.65;;;;;;;;;;5034229;28;20116;-47
2021/10/10 08:20:18;;;;;;;4.10;2.30;;;;;;;;;;5034190;28;20025;-47
2021/10/10 08:22:46;;;;;;;3.97;2.55;;;;;;;;;;5034291;28;20034;-47
2021/10/10 08:25:11;;;;;;;3.25;1.92;;;;;;;;;;5033607;28;20025;-47
2021/10/10 08:27:38;;;;;;;4.82;2.47;;;;;;;;;;5033911;28;20045;-47
2021/10/10 08:30:04;;;;;;;9.98;4.57;;;;;;;;;;5033831;28;20017;-46
2021/10/10 08:32:30;;;;;;;3.08;1.83;;;;;;;;;;5033821;28;20056;-46
2021/10/10 08:34:55;;;;;;;7.82;2.00;;;;;;;;;;5033671;28;20046;-47
2021/10/10 08:37:21;;;;;;;5.53;1.55;;;;;;;;;;5032310;28;20033;-46
2021/10/10 08:39:46;;;;;;;3.33;2.15;;;;;;;;;;5033636;28;20025;-47
2021/10/10 08:42:13;;;;;;;3.53;1.40;;;;;;;;;;5033570;28;20053;-47
2021/10/10 08:44:42;;;;;;;6.45;2.53;;;;;;;;;;5033633;28;20486;-46
2021/10/10 08:47:14;;;;;;;4.00;2.22;;;;;;;;;;5033575;28;20120;-47
2021/10/10 08:49:40;;;;;;;6.07;1.48;;;;;;;;;;5033482;28;20216;-47
2021/10/10 08:52:07;;;;;;;3.42;2.05;;;;;;;;;;5033410;28;20120;-47
2021/10/10 08:54:33;;;;;;;5.43;2.13;;;;;;;;;;5033278;28;20030;-47
2021/10/10 08:56:58;;;;;;;4.68;1.92;;;;;;;;;;5033705;28;20088;-47
2021/10/10 08:59:25;;;;;;;3.60;1.98;;;;;;;;;;5033544;28;20029;-47
2021/10/10 09:01:52;;;;;;;4.72;1.70;;;;;;;;;;5033791;28;20041;-47
2021/10/10 09:04:18;;;;;;;4.57;1.83;;;;;;;;;;5033225;28;20041;-47
2021/10/10 09:06:43;;;;;;;4.90;2.38;;;;;;;;;;5032891;28;20036;-47
2021/10/10 09:09:28;;;;;;;2.15;1.50;;;;;;;;;;5033106;28;20099;-47
2021/10/10 09:12:02;;;;;;;6.50;2.15;;;;;;;;;;5032985;28;20088;-46
2021/10/10 09:14:28;;;;;;;2.65;1.50;;;;;;;;;;5032970;28;20448;-46
2021/10/10 09:17:14;;;;;;;3.10;1.65;;;;;;;;;;5033167;28;20080;-47
2021/10/10 09:19:40;;;;;;;4.78;2.13;;;;;;;;;;5031147;28;20140;-47
2021/10/10 09:22:06;;;;;;;3.80;2.42;;;;;;;;;;5032735;28;20108;-47
2021/10/10 09:24:33;;;;;;;1.90;1.52;;;;;;;;;;5033462;28;20379;-47
2021/10/10 09:26:58;;;;;;;4.47;1.88;;;;;;;;;;5032667;28;20048;-47
2021/10/10 09:29:31;;;;;;;6.13;2.47;;;;;;;;;;5032105;28;20025;-47
2021/10/10 09:32:04;;;;;;;3.17;1.58;;;;;;;;;;5032744;28;20543;-47
2021/10/10 09:34:30;;;;;;;2.83;2.00;;;;;;;;;;5032524;28;20049;-47
2021/10/10 09:36:58;;;;;;;4.28;2.33;;;;;;;;;;5032792;28;20112;-47
2021/10/10 09:39:33;;;;;;;4.55;1.98;;;;;;;;;;5032430;28;20033;-47
2021/10/10 09:42:00;;;;;;;10.68;2.90;;;;;;;;;;5032801;28;20034;-47
2021/10/10 09:44:31;;;;;;;3.88;1.98;;;;;;;;;;5032396;28;20076;-47
2021/10/10 09:46:57;;;;;;;3.08;1.80;;;;;;;;;;5032274;28;20157;-47
2021/10/10 09:49:26;;;;;;;4.70;1.65;;;;;;;;;;5032226;28;20036;-47
2021/10/10 09:51:53;;;;;;;3.50;1.80;;;;;;;;;;5032661;28;20394;-47
2021/10/10 09:54:19;;;;;;;4.00;2.10;;;;;;;;;;5032461;28;20048;-47
2021/10/10 09:57:03;;;;;;;3.20;1.60;;;;;;;;;;5032056;28;20082;-47
2021/10/10 09:59:29;;;;;;;5.30;1.70;;;;;;;;;;5032161;28;20029;-47
2021/10/10 10:01:54;;;;;;;3.33;1.75;;;;;;;;;;5032238;28;20394;-47
2021/10/10 10:04:20;;;;;;;2.85;2.08;;;;;;;;;;5032247;28;20523;-47
2021/10/10 10:06:45;;;;;;;4.10;1.58;;;;;;;;;;5031957;28;20060;-46
2021/10/10 10:09:12;;;;;;;2.83;1.83;;;;;;;;;;5031976;28;20442;-47
2021/10/10 10:11:39;;;;;;;2.92;1.55;;;;;;;;;;5032025;28;20100;-47
2021/10/10 10:14:15;;;;;;;4.15;1.38;;;;;;;;;;5032097;28;20045;-47
2021/10/10 10:16:41;;;;;;;6.53;1.55;;;;;;;;;;5031903;28;20033;-47
2021/10/10 10:19:11;;;;;;;5.60;2.63;;;;;;;;;;5031933;28;20025;-47
2021/10/10 10:21:37;;;;;;;4.40;1.80;;;;;;;;;;5031755;28;20037;-47
2021/10/10 10:24:03;;;;;;;3.67;2.55;;;;;;;;;;5031606;28;20108;-47
2021/10/10 10:26:32;;;;;;;2.10;1.90;;;;;;;;;;5031585;28;20042;-47
2021/10/10 10:28:59;;;;;;;4.32;2.30;;;;;;;;;;5031751;28;20112;-47
2021/10/10 10:31:25;;;;;;;2.10;1.63;;;;;;;;;;5031528;28;20067;-47
2021/10/10 10:33:54;;;;;;;2.70;1.40;;;;;;;;;;5031483;28;20492;-47
2021/10/10 10:36:38;;;;;;;5.25;2.38;;;;;;;;;;5031412;28;20127;-47
2021/10/10 10:39:03;;;;;;;3.22;2.13;;;;;;;;;;5031176;28;20025;-47
2021/10/10 10:41:48;;;;;;;1.88;1.55;;;;;;;;;;5030945;28;20100;-46
2021/10/10 10:44:32;;;;;;;2.40;1.77;;;;;;;;;;5031374;28;20029;-46
2021/10/10 10:47:04;;;;;;;2.65;1.70;;;;;;;;;;5031362;28;20071;-46
2021/10/10 10:49:48;;;;;;;2.85;1.30;;;;;;;;;;5031729;28;20379;-46
2021/10/10 10:52:24;;;;;;;2.60;1.30;;;;;;;;;;5031368;28;20061;-46
2021/10/10 10:54:53;;;;;;;3.42;1.75;;;;;;;;;;5031499;28;20064;-46
2021/10/10 10:57:26;;;;;;;2.70;1.65;;;;;;;;;;5031512;28;20045;-47
2021/10/10 11:00:12;;;;;;;4.47;1.90;;;;;;;;;;5031267;28;20460;-47
2021/10/10 11:02:59;;;;;;;2.15;1.45;;;;;;;;;;5030082;28;20034;-47
2021/10/10 11:05:31;;;;;;;5.15;2.13;;;;;;;;;;5031302;28;20044;-46
2021/10/10 11:08:07;;;;;;;2.63;1.40;;;;;;;;;;5031382;28;20056;-46
2021/10/10 11:10:34;;;;;;;2.47;1.55;;;;;;;;;;5031192;28;20599;-47
2021/10/10 11:13:06;;;;;;;3.38;1.65;;;;;;;;;;5031210;28;20050;-47
2021/10/10 11:15:50;;;;;;;4.25;1.58;;;;;;;;;;5030960;28;20109;-46
2021/10/10 11:18:19;;;;;;;3.80;1.60;;;;;;;;;;5031044;28;20033;-47
2021/10/10 11:20:48;;;;;;;1.75;1.38;;;;;;;;;;5031476;28;20017;-47
2021/10/10 11:23:14;;;;;;;6.80;1.48;;;;;;;;;;5031199;28;20026;-47
2021/10/10 11:25:39;;;;;;;2.70;1.63;;;;;;;;;;5030995;28;20499;-46
2021/10/10 11:28:05;;;;;;;3.50;1.80;;;;;;;;;;5031224;28;20061;-47
2021/10/10 11:30:30;;;;;;;7.05;1.73;;;;;;;;;;5030964;28;20017;-47
2021/10/10 11:32:57;;;;;;;1.48;1.38;;;;;;;;;;5031038;28;20041;-47
2021/10/10 11:35:24;;;;;;;1.52;1.42;;;;;;;;;;5030624;28;20049;-47
2021/10/10 11:37:59;;;;;;;1.60;1.38;;;;;;;;;;5031267;28;20036;-46
2021/10/10 11:40:25;;;;;;;4.35;1.80;;;;;;;;;;5030809;28;20033;-47
2021/10/10 11:42:53;;;;;;;3.05;1.10;;;;;;;;;;5030844;28;20384;-47
2021/10/10 11:45:25;;;;;;;4.32;2.03;;;;;;;;;;5030629;28;20476;-46
2021/10/10 11:47:51;;;;;;;4.03;1.40;;;;;;;;;;5031490;28;20105;-47
2021/10/10 11:50:16;;;;;;;4.82;1.50;;;;;;;;;;5030719;28;20112;-47
2021/10/10 11:52:51;;;;;;;3.67;1.20;;;;;;;;;;5034284;28;20037;-47
2021/10/10 11:57:46;;;;;;;5.85;1.60;;;;;;;;;;5034422;28;20432;-47
2021/10/10 12:00:13;;;;;;;8.48;2.60;;;;;;;;;;5034468;28;20025;-46
2021/10/10 12:02:45;;;;;;;1.58;1.27;;;;;;;;;;5034661;28;20443;-46
2021/10/10 12:05:14;;;;;;;4.85;1.45;;;;;;;;;;5034223;28;20036;-47
2021/10/10 12:07:41;;;;;;;3.40;2.17;;;;;;;;;;5034649;28;20033;-47
2021/10/10 12:10:08;;;;;;;2.42;1.48;;;;;;;;;;5034193;28;20033;-47
2021/10/10 12:12:34;;;;;;;2.15;1.52;;;;;;;;;;5034177;28;20072;-47
2021/10/10 12:15:00;;;;;;;5.45;1.80;;;;;;;;;;5034434;28;20029;-46
2021/10/10 12:17:43;;;;;;;7.40;1.67;;;;;;;;;;5034172;28;20029;-47
2021/10/10 12:20:08;;;;;;;;;;;;;;;;;;5034306;28;20128;-47
2021/10/10 12:22:34;;;;;;;2.55;1.73;;;;;;;;;;5034055;28;20004;-47
2021/10/10 12:24:59;;;;;;;1.75;1.55;;;;;;;;;;5033907;28;20095;-47
2021/10/10 12:27:29;;;;;;;2.47;1.70;;;;;;;;;;5033804;28;20033;-47
2021/10/10 12:29:55;;;;;;;2.30;1.10;;;;;;;;;;5033930;28;20625;-47
2021/10/10 12:32:22;;;;;;;7.25;1.60;;;;;;;;;;5032703;28;20030;-47
2021/10/10 12:34:47;;;;;;;4.75;1.60;;;;;;;;;;5033587;28;20124;-46
2021/10/10 12:37:17;;;;;;;1.95;1.40;;;;;;;;;;5033903;28;20132;-47
2021/10/10 12:39:43;;;;;;;3.80;1.67;;;;;;;;;;5033720;28;20040;-46
2021/10/10 12:42:09;;;;;;;2.38;1.50;;;;;;;;;;5033614;28;20383;-47
2021/10/10 12:44:34;;;;;;;3.70;1.92;;;;;;;;;;5033806;28;20030;-47
2021/10/10 12:47:01;;;;;;;3.03;1.48;;;;;;;;;;5033527;28;20029;-47
2021/10/10 12:49:27;;;;;;;2.60;1.50;;;;;;;;;;5033670;28;20025;-47
2021/10/10 12:51:53;;;;;;;2.03;1.50;;;;;;;;;;5033540;28;20024;-46
2021/10/10 12:54:20;;;;;;;2.53;1.42;;;;;;;;;;5033655;28;20040;-47
2021/10/10 12:57:03;;;;;;;3.00;1.67;;;;;;;;;;5033331;28;20021;-47
2021/10/10 12:59:30;;;;;;;2.90;1.08;;;;;;;;;;5033292;28;20079;-47
2021/10/10 13:01:55;;;;;;;3.10;1.73;;;;;;;;;;5032022;28;20385;-47
2021/10/10 13:04:21;;;;;;;1.95;1.40;;;;;;;;;;5032389;28;20037;-47
2021/10/10 13:06:48;;;;;;;2.35;1.80;;;;;;;;;;5033011;28;20033;-47
2021/10/10 13:09:14;;;;;;;3.33;1.75;;;;;;;;;;5033095;28;20029;-46
2021/10/10 13:11:40;;;;;;;1.52;1.33;;;;;;;;;;5033182;28;20057;-47
2021/10/10 13:14:05;;;;;;;4.20;1.55;;;;;;;;;;5033044;28;20060;-47
2021/10/10 13:16:31;;;;;;;3.42;1.98;;;;;;;;;;5031713;28;20120;-47
2021/10/10 13:18:56;;;;;;;2.15;1.27;;;;;;;;;;5033190;28;20028;-47
2021/10/10 13:21:22;;;;;;;5.78;2.00;;;;;;;;;;5032883;28;20021;-47
2021/10/10 13:23:47;;;;;;;2.38;1.58;;;;;;;;;;5031945;28;20375;-47
2021/10/10 13:26:13;;;;;;;1.92;1.20;;;;;;;;;;5032813;28;20029;-47
2021/10/10 13:28:38;;;;;;;3.47;1.85;;;;;;;;;;5033074;28;20506;-47
2021/10/10 13:31:05;;;;;;;2.65;1.60;;;;;;;;;;5032705;28;20376;-47
2021/10/10 13:33:31;;;;;;;2.50;1.67;;;;;;;;;;5032537;28;20046;-47
2021/10/10 13:35:59;;;;;;;3.90;1.77;;;;;;;;;;5032665;28;20104;-47
2021/10/10 13:38:26;;;;;;;2.47;1.40;;;;;;;;;;5032413;28;20095;-47
2021/10/10 13:40:51;;;;;;;5.72;1.88;;;;;;;;;;5032908;28;20017;-47
2021/10/10 13:43:18;;;;;;;3.53;1.45;;;;;;;;;;5032447;28;20471;-47
2021/10/10 13:45:43;;;;;;;2.47;1.50;;;;;;;;;;5032279;28;20033;-46
2021/10/10 13:48:09;;;;;;;2.88;1.20;;;;;;;;;;5032493;28;20044;-47
2021/10/10 13:50:35;;;;;;;3.20;1.25;;;;;;;;;;5032371;28;20435;-47
2021/10/10 13:53:01;;;;;;;2.95;1.70;;;;;;;;;;5032308;28;20037;-47
2021/10/10 13:55:26;;;;;;;2.53;1.75;;;;;;;;;;5031050;28;20025;-46
2021/10/10 13:57:52;;;;;;;3.45;2.13;;;;;;;;;;5032240;28;20511;-48
2021/10/10 14:00:17;;;;;;;1.73;1.25;;;;;;;;;;5032062;28;20067;-46
2021/10/10 14:02:43;;;;;;;2.53;1.52;;;;;;;;;;5032378;28;20030;-47
2021/10/10 14:05:08;;;;;;;3.70;1.60;;;;;;;;;;5032094;28;20163;-47
2021/10/10 14:07:36;;;;;;;2.90;1.33;;;;;;;;;;5032012;28;20083;-47
2021/10/10 14:10:05;;;;;;;3.13;1.45;;;;;;;;;;5031983;28;20028;-47
2021/10/10 14:12:31;;;;;;;4.35;1.98;;;;;;;;;;5031985;28;20077;-47
2021/10/10 14:14:56;;;;;;;2.75;1.77;;;;;;;;;;5032011;28;20056;-47
2021/10/10 14:17:22;;;;;;;2.38;1.48;;;;;;;;;;5031898;28;20033;-48
2021/10/10 14:19:47;;;;;;;3.75;1.73;;;;;;;;;;5031935;28;20022;-46
2021/10/10 14:22:13;;;;;;;2.13;1.83;;;;;;;;;;5031748;28;20021;-47
2021/10/10 14:24:38;;;;;;;2.67;1.67;;;;;;;;;;5032098;28;20021;-47
2021/10/10 14:27:04;;;;;;;2.00;1.20;;;;;;;;;;5031519;28;20041;-47
2021/10/10 14:29:30;;;;;;;6.10;1.48;;;;;;;;;;5031910;28;20025;-47
2021/10/10 14:31:56;;;;;;;3.25;1.58;;;;;;;;;;5031743;28;20480;-47
2021/10/10 14:34:21;;;;;;;4.45;1.75;;;;;;;;;;5031250;28;20653;-47
2021/10/10 14:36:48;;;;;;;4.10;1.88;;;;;;;;;;5031742;28;20048;-47
2021/10/10 14:39:16;;;;;;;4.55;1.30;;;;;;;;;;5031441;28;20025;-46
2021/10/10 14:41:49;;;;;;;10.18;1.48;;;;;;;;;;5031541;28;20112;-47
2021/10/10 14:44:35;;;;;;;3.60;1.73;;;;;;;;;;5031707;28;20113;-46
2021/10/10 14:49:33;;;;;;;1.85;1.23;;;;;;;;;;5031234;28;20025;-47
2021/10/10 14:52:00;;;;;;;3.30;1.60;;;;;;;;;;5030572;28;20450;-47
2021/10/10 14:54:26;;;;;;;1.88;1.20;;;;;;;;;;5031275;28;20463;-47